sensor_id;sensor_type;location;lat;lon;timestamp;noise_LAeq;noise_LA_min;noise_LA_max;noise_LA01;noise_LA95
77361;Laerm;66427;51.798;10.954;2023-03-16T00:00:12;30.21;28.33;39.53;;
77361;Laerm;66427;51.798;10.954;2023-03-16T00:02:38;29.97;28.04;35.63;;
77361;Laerm;66427;51.798;10.954;2023-03-16T00:05:04;29.68;27.79;33.26;;
77361;Laerm;66427;51.798;10.954;2023-03-16T00:07:30;30.64;28.33;35.85;;
77361;Laerm;66427;51.798;10.954;2023-03-16T00:09:56;31.68;28.58;36.79;;
77361;Laerm;66427;51.798;10.954;2023-03-16T00:12:21;29.68;28.12;32.78;;
77361;Laerm;66427;51.798;10.954;2023-03-16T00:14:48;31.72;28.54;46.89;;
77361;Laerm;66427;51.798;10.954;2023-03-16T00:17:14;29.01;27.83;32.58;;
77361;Laerm;66427;51.798;10.954;2023-03-16T00:19:47;29.45;27.92;32.82;;
77361;Laerm;66427;51.798;10.954;2023-03-16T00:22:15;50.61;28.57;65.96;;
77361;Laerm;66427;51.798;10.954;2023-03-16T00:24:41;30.53;28.26;34.88;;
77361;Laerm;66427;51.798;10.954;2023-03-16T00:27:08;30.72;28.35;38.46;;
77361;Laerm;66427;51.798;10.954;2023-03-16T00:29:33;29.51;28.18;32.67;;
77361;Laerm;66427;51.798;10.954;2023-03-16T00:32:00;48.03;28.27;64.43;;
77361;Laerm;66427;51.798;10.954;2023-03-16T00:34:27;29.94;28.14;33.55;;
77361;Laerm;66427;51.798;10.954;2023-03-16T00:36:54;29.40;27.81;33.20;;
77361;Laerm;66427;51.798;10.954;2023-03-16T00:39:19;29.43;27.97;36.21;;
77361;Laerm;66427;51.798;10.954;2023-03-16T00:41:46;29.18;27.87;35.23;;
77361;Laerm;66427;51.798;10.954;2023-03-16T00:44:12;30.53;27.65;38.04;;
77361;Laerm;66427;51.798;10.954;2023-03-16T00:46:38;30.59;28.59;35.38;;
77361;Laerm;66427;51.798;10.954;2023-03-16T00:49:03;29.93;28.24;35.50;;
77361;Laerm;66427;51.798;10.954;2023-03-16T00:51:29;29.00;28.11;30.81;;
77361;Laerm;66427;51.798;10.954;2023-03-16T00:53:57;30.67;28.05;36.08;;
77361;Laerm;66427;51.798;10.954;2023-03-16T00:56:23;29.38;28.21;33.84;;
77361;Laerm;66427;51.798;10.954;2023-03-16T00:58:49;29.33;27.96;33.35;;
77361;Laerm;66427;51.798;10.954;2023-03-16T01:01:15;29.18;27.97;31.40;;
77361;Laerm;66427;51.798;10.954;2023-03-16T01:03:42;28.95;28.00;34.50;;
77361;Laerm;66427;51.798;10.954;2023-03-16T01:06:10;30.02;28.03;37.42;;
77361;Laerm;66427;51.798;10.954;2023-03-16T01:08:37;30.36;28.14;38.75;;
77361;Laerm;66427;51.798;10.954;2023-03-16T01:11:04;28.70;27.79;33.56;;
77361;Laerm;66427;51.798;10.954;2023-03-16T01:13:30;29.19;27.76;34.20;;
77361;Laerm;66427;51.798;10.954;2023-03-16T01:15:56;28.78;27.84;41.94;;
77361;Laerm;66427;51.798;10.954;2023-03-16T01:18:22;29.60;27.71;38.31;;
77361;Laerm;66427;51.798;10.954;2023-03-16T01:20:48;30.28;28.27;34.84;;
77361;Laerm;66427;51.798;10.954;2023-03-16T01:23:18;28.83;27.99;30.56;;
77361;Laerm;66427;51.798;10.954;2023-03-16T01:25:44;29.22;28.09;40.16;;
77361;Laerm;66427;51.798;10.954;2023-03-16T01:28:17;31.66;28.49;39.51;;
77361;Laerm;66427;51.798;10.954;2023-03-16T01:30:43;32.08;28.24;47.15;;
77361;Laerm;66427;51.798;10.954;2023-03-16T01:33:08;30.67;28.22;38.08;;
77361;Laerm;66427;51.798;10.954;2023-03-16T01:35:35;31.60;28.43;46.01;;
77361;Laerm;66427;51.798;10.954;2023-03-16T01:38:01;29.90;28.22;41.35;;
77361;Laerm;66427;51.798;10.954;2023-03-16T01:40:26;29.91;27.82;39.01;;
77361;Laerm;66427;51.798;10.954;2023-03-16T01:43:02;28.98;27.65;33.08;;
77361;Laerm;66427;51.798;10.954;2023-03-16T01:48:13;30.42;27.97;37.06;;
77361;Laerm;66427;51.798;10.954;2023-03-16T01:50:39;30.30;27.74;41.80;;
77361;Laerm;66427;51.798;10.954;2023-03-16T01:53:06;29.86;27.93;37.46;;
77361;Laerm;66427;51.798;10.954;2023-03-16T01:55:32;30.19;28.11;47.23;;
77361;Laerm;66427;51.798;10.954;2023-03-16T01:57:57;29.39;27.87;33.66;;
77361;Laerm;66427;51.798;10.954;2023-03-16T02:00:23;29.47;28.05;34.29;;
77361;Laerm;66427;51.798;10.954;2023-03-16T02:02:57;28.93;28.03;39.24;;
77361;Laerm;66427;51.798;10.954;2023-03-16T02:05:29;29.22;28.10;33.30;;
77361;Laerm;66427;51.798;10.954;2023-03-16T02:07:57;29.82;28.02;36.12;;
77361;Laerm;66427;51.798;10.954;2023-03-16T02:10:24;28.99;27.95;34.07;;
77361;Laerm;66427;51.798;10.954;2023-03-16T02:12:52;29.09;27.96;31.40;;
77361;Laerm;66427;51.798;10.954;2023-03-16T02:15:18;29.92;28.02;47.25;;
77361;Laerm;66427;51.798;10.954;2023-03-16T02:17:45;31.31;28.40;36.51;;
77361;Laerm;66427;51.798;10.954;2023-03-16T02:22:38;29.97;28.44;32.15;;
77361;Laerm;66427;51.798;10.954;2023-03-16T02:25:06;29.52;28.45;37.25;;
77361;Laerm;66427;51.798;10.954;2023-03-16T02:27:37;28.94;28.07;31.15;;
77361;Laerm;66427;51.798;10.954;2023-03-16T02:30:09;29.25;28.10;43.96;;
77361;Laerm;66427;51.798;10.954;2023-03-16T02:32:36;30.63;28.55;38.99;;
77361;Laerm;66427;51.798;10.954;2023-03-16T02:35:02;29.60;28.03;34.63;;
77361;Laerm;66427;51.798;10.954;2023-03-16T02:37:29;30.00;27.99;35.40;;
77361;Laerm;66427;51.798;10.954;2023-03-16T02:39:58;33.08;28.87;37.56;;
77361;Laerm;66427;51.798;10.954;2023-03-16T02:42:24;32.32;29.19;39.99;;
77361;Laerm;66427;51.798;10.954;2023-03-16T02:44:53;29.93;28.67;32.12;;
77361;Laerm;66427;51.798;10.954;2023-03-16T02:47:26;31.08;28.57;37.32;;
77361;Laerm;66427;51.798;10.954;2023-03-16T02:49:53;47.26;30.89;62.28;;
77361;Laerm;66427;51.798;10.954;2023-03-16T02:52:18;30.82;29.10;34.08;;
77361;Laerm;66427;51.798;10.954;2023-03-16T02:54:44;32.32;28.71;41.30;;
77361;Laerm;66427;51.798;10.954;2023-03-16T02:57:10;31.36;28.50;41.64;;
77361;Laerm;66427;51.798;10.954;2023-03-16T02:59:36;31.85;28.85;42.37;;
77361;Laerm;66427;51.798;10.954;2023-03-16T03:02:02;34.68;29.33;40.17;;
77361;Laerm;66427;51.798;10.954;2023-03-16T03:04:27;31.99;29.22;38.37;;
77361;Laerm;66427;51.798;10.954;2023-03-16T03:06:54;30.85;28.49;38.75;;
77361;Laerm;66427;51.798;10.954;2023-03-16T03:09:19;29.93;27.91;42.81;;
77361;Laerm;66427;51.798;10.954;2023-03-16T03:11:45;32.01;28.96;46.01;;
77361;Laerm;66427;51.798;10.954;2023-03-16T03:14:11;31.53;28.83;40.64;;
77361;Laerm;66427;51.798;10.954;2023-03-16T03:16:40;31.88;29.10;39.92;;
77361;Laerm;66427;51.798;10.954;2023-03-16T03:19:06;34.19;30.40;40.68;;
77361;Laerm;66427;51.798;10.954;2023-03-16T03:21:32;31.85;28.88;45.34;;
77361;Laerm;66427;51.798;10.954;2023-03-16T03:23:58;32.28;28.76;39.75;;
77361;Laerm;66427;51.798;10.954;2023-03-16T03:26:24;31.39;28.99;38.06;;
77361;Laerm;66427;51.798;10.954;2023-03-16T03:28:50;33.38;29.79;45.26;;
77361;Laerm;66427;51.798;10.954;2023-03-16T03:31:18;33.37;29.40;41.26;;
77361;Laerm;66427;51.798;10.954;2023-03-16T03:33:44;33.08;29.43;41.18;;
77361;Laerm;66427;51.798;10.954;2023-03-16T03:36:10;33.54;29.29;41.84;;
77361;Laerm;66427;51.798;10.954;2023-03-16T03:38:36;33.98;29.67;39.33;;
77361;Laerm;66427;51.798;10.954;2023-03-16T03:41:03;34.27;29.94;46.02;;
77361;Laerm;66427;51.798;10.954;2023-03-16T03:43:31;34.14;31.25;44.04;;
77361;Laerm;66427;51.798;10.954;2023-03-16T03:45:57;32.47;28.90;43.20;;
77361;Laerm;66427;51.798;10.954;2023-03-16T03:48:23;34.28;29.99;45.98;;
77361;Laerm;66427;51.798;10.954;2023-03-16T03:50:50;34.04;29.34;46.72;;
77361;Laerm;66427;51.798;10.954;2023-03-16T03:53:16;34.78;31.59;42.98;;
77361;Laerm;66427;51.798;10.954;2023-03-16T03:55:42;32.94;29.72;42.89;;
77361;Laerm;66427;51.798;10.954;2023-03-16T03:58:08;33.92;30.86;43.33;;
77361;Laerm;66427;51.798;10.954;2023-03-16T04:00:34;33.02;30.45;40.90;;
77361;Laerm;66427;51.798;10.954;2023-03-16T04:03:00;34.67;30.74;43.31;;
77361;Laerm;66427;51.798;10.954;2023-03-16T04:05:26;35.87;30.22;46.46;;
77361;Laerm;66427;51.798;10.954;2023-03-16T04:07:52;36.54;30.60;46.82;;
77361;Laerm;66427;51.798;10.954;2023-03-16T04:10:30;38.12;33.03;47.03;;
77361;Laerm;66427;51.798;10.954;2023-03-16T04:12:56;37.94;32.63;48.40;;
77361;Laerm;66427;51.798;10.954;2023-03-16T04:15:23;36.66;32.59;46.54;;
77361;Laerm;66427;51.798;10.954;2023-03-16T04:17:48;50.95;32.68;64.96;;
77361;Laerm;66427;51.798;10.954;2023-03-16T04:20:14;49.88;32.97;63.18;;
77361;Laerm;66427;51.798;10.954;2023-03-16T04:22:43;45.90;33.70;57.92;;
77361;Laerm;66427;51.798;10.954;2023-03-16T04:25:10;49.73;35.12;61.43;;
77361;Laerm;66427;51.798;10.954;2023-03-16T04:27:36;48.00;35.46;61.53;;
77361;Laerm;66427;51.798;10.954;2023-03-16T04:30:04;40.74;33.43;54.06;;
77361;Laerm;66427;51.798;10.954;2023-03-16T04:32:31;43.36;33.85;61.48;;
77361;Laerm;66427;51.798;10.954;2023-03-16T04:34:58;44.41;33.57;56.48;;
77361;Laerm;66427;51.798;10.954;2023-03-16T04:37:24;42.73;33.52;55.56;;
77361;Laerm;66427;51.798;10.954;2023-03-16T04:39:50;43.79;34.97;56.25;;
77361;Laerm;66427;51.798;10.954;2023-03-16T04:42:16;42.43;34.51;57.66;;
77361;Laerm;66427;51.798;10.954;2023-03-16T04:44:41;46.79;35.25;60.05;;
77361;Laerm;66427;51.798;10.954;2023-03-16T04:47:12;51.07;35.18;67.67;;
77361;Laerm;66427;51.798;10.954;2023-03-16T04:49:38;53.03;34.45;68.66;;
77361;Laerm;66427;51.798;10.954;2023-03-16T04:52:04;48.19;35.15;63.76;;
77361;Laerm;66427;51.798;10.954;2023-03-16T04:54:30;51.70;36.13;68.02;;
77361;Laerm;66427;51.798;10.954;2023-03-16T04:56:56;52.94;33.80;69.27;;
77361;Laerm;66427;51.798;10.954;2023-03-16T04:59:22;41.23;35.82;54.93;;
77361;Laerm;66427;51.798;10.954;2023-03-16T05:01:49;51.30;34.81;63.38;;
77361;Laerm;66427;51.798;10.954;2023-03-16T05:04:15;55.11;34.98;73.09;;
77361;Laerm;66427;51.798;10.954;2023-03-16T05:06:40;52.79;35.50;69.02;;
77361;Laerm;66427;51.798;10.954;2023-03-16T05:09:06;37.95;34.39;46.92;;
77361;Laerm;66427;51.798;10.954;2023-03-16T05:11:35;51.71;36.15;64.90;;
77361;Laerm;66427;51.798;10.954;2023-03-16T05:14:02;40.19;35.11;50.10;;
77361;Laerm;66427;51.798;10.954;2023-03-16T05:16:28;39.23;34.80;52.85;;
77361;Laerm;66427;51.798;10.954;2023-03-16T05:18:58;38.94;34.60;48.19;;
77361;Laerm;66427;51.798;10.954;2023-03-16T05:21:24;43.79;35.52;56.20;;
77361;Laerm;66427;51.798;10.954;2023-03-16T05:23:50;49.64;36.60;62.64;;
77361;Laerm;66427;51.798;10.954;2023-03-16T05:26:16;56.56;36.68;70.20;;
77361;Laerm;66427;51.798;10.954;2023-03-16T05:28:43;56.33;36.21;69.17;;
77361;Laerm;66427;51.798;10.954;2023-03-16T05:31:09;52.40;38.59;67.19;;
77361;Laerm;66427;51.798;10.954;2023-03-16T05:33:35;54.38;38.66;66.62;;
77361;Laerm;66427;51.798;10.954;2023-03-16T05:36:01;55.87;38.60;68.63;;
77361;Laerm;66427;51.798;10.954;2023-03-16T05:38:27;54.50;38.75;66.79;;
77361;Laerm;66427;51.798;10.954;2023-03-16T05:40:53;51.21;37.97;68.27;;
77361;Laerm;66427;51.798;10.954;2023-03-16T05:43:20;53.62;39.42;68.01;;
77361;Laerm;66427;51.798;10.954;2023-03-16T05:45:48;55.82;39.99;71.24;;
77361;Laerm;66427;51.798;10.954;2023-03-16T05:48:14;52.36;38.63;66.76;;
77361;Laerm;66427;51.798;10.954;2023-03-16T05:50:40;56.47;39.42;71.64;;
77361;Laerm;66427;51.798;10.954;2023-03-16T05:53:07;56.06;38.85;71.42;;
77361;Laerm;66427;51.798;10.954;2023-03-16T05:55:33;56.49;39.08;69.77;;
77361;Laerm;66427;51.798;10.954;2023-03-16T05:57:59;55.66;40.21;74.46;;
77361;Laerm;66427;51.798;10.954;2023-03-16T06:00:25;57.80;41.52;71.09;;
77361;Laerm;66427;51.798;10.954;2023-03-16T06:02:52;57.06;38.91;68.60;;
77361;Laerm;66427;51.798;10.954;2023-03-16T06:05:19;56.21;38.74;71.41;;
77361;Laerm;66427;51.798;10.954;2023-03-16T06:07:49;58.63;40.72;69.41;;
77361;Laerm;66427;51.798;10.954;2023-03-16T06:10:15;59.42;38.38;71.08;;
77361;Laerm;66427;51.798;10.954;2023-03-16T06:12:41;51.86;38.55;66.83;;
77361;Laerm;66427;51.798;10.954;2023-03-16T06:15:07;56.04;39.14;69.53;;
77361;Laerm;66427;51.798;10.954;2023-03-16T06:17:34;52.02;37.19;65.24;;
77361;Laerm;66427;51.798;10.954;2023-03-16T06:20:00;56.39;39.01;70.53;;
77361;Laerm;66427;51.798;10.954;2023-03-16T06:22:26;63.72;38.70;80.70;;
77361;Laerm;66427;51.798;10.954;2023-03-16T06:24:54;58.85;40.06;70.78;;
77361;Laerm;66427;51.798;10.954;2023-03-16T06:27:20;62.16;38.90;74.19;;
77361;Laerm;66427;51.798;10.954;2023-03-16T06:29:46;59.95;41.54;71.66;;
77361;Laerm;66427;51.798;10.954;2023-03-16T06:32:12;58.74;37.54;72.40;;
77361;Laerm;66427;51.798;10.954;2023-03-16T06:34:38;58.88;38.03;70.39;;
77361;Laerm;66427;51.798;10.954;2023-03-16T06:37:05;55.36;38.55;68.92;;
77361;Laerm;66427;51.798;10.954;2023-03-16T06:39:31;61.83;39.82;74.50;;
77361;Laerm;66427;51.798;10.954;2023-03-16T06:41:57;56.00;38.45;68.46;;
77361;Laerm;66427;51.798;10.954;2023-03-16T06:44:24;62.04;40.14;79.08;;
77361;Laerm;66427;51.798;10.954;2023-03-16T06:46:50;58.00;39.12;71.72;;
77361;Laerm;66427;51.798;10.954;2023-03-16T06:49:16;59.19;38.42;71.97;;
77361;Laerm;66427;51.798;10.954;2023-03-16T06:51:41;57.80;41.00;69.84;;
77361;Laerm;66427;51.798;10.954;2023-03-16T06:54:07;51.29;37.77;66.12;;
77361;Laerm;66427;51.798;10.954;2023-03-16T06:56:33;52.75;36.91;66.21;;
77361;Laerm;66427;51.798;10.954;2023-03-16T06:58:59;52.38;35.97;68.74;;
77361;Laerm;66427;51.798;10.954;2023-03-16T07:01:25;58.33;36.37;74.24;;
77361;Laerm;66427;51.798;10.954;2023-03-16T07:03:51;57.32;35.21;70.71;;
77361;Laerm;66427;51.798;10.954;2023-03-16T07:06:17;41.11;34.66;60.25;;
77361;Laerm;66427;51.798;10.954;2023-03-16T07:08:43;62.35;33.65;79.25;;
77361;Laerm;66427;51.798;10.954;2023-03-16T07:11:09;49.18;34.05;64.04;;
77361;Laerm;66427;51.798;10.954;2023-03-16T07:13:35;52.36;34.19;67.67;;
77361;Laerm;66427;51.798;10.954;2023-03-16T07:16:02;47.84;34.24;59.28;;
77361;Laerm;66427;51.798;10.954;2023-03-16T07:18:28;50.92;34.50;66.95;;
77361;Laerm;66427;51.798;10.954;2023-03-16T07:20:55;52.97;34.97;67.58;;
77361;Laerm;66427;51.798;10.954;2023-03-16T07:23:23;57.03;38.09;71.24;;
77361;Laerm;66427;51.798;10.954;2023-03-16T07:25:50;53.66;36.39;67.12;;
77361;Laerm;66427;51.798;10.954;2023-03-16T07:28:16;52.42;36.35;65.65;;
77361;Laerm;66427;51.798;10.954;2023-03-16T07:30:43;54.25;36.60;69.27;;
77361;Laerm;66427;51.798;10.954;2023-03-16T07:33:09;52.62;35.68;68.58;;
77361;Laerm;66427;51.798;10.954;2023-03-16T07:35:36;58.39;35.56;72.58;;
77361;Laerm;66427;51.798;10.954;2023-03-16T07:38:01;58.54;37.39;72.79;;
77361;Laerm;66427;51.798;10.954;2023-03-16T07:40:27;53.69;34.37;70.39;;
77361;Laerm;66427;51.798;10.954;2023-03-16T07:42:54;56.23;38.00;69.51;;
77361;Laerm;66427;51.798;10.954;2023-03-16T07:45:20;55.06;37.69;70.32;;
77361;Laerm;66427;51.798;10.954;2023-03-16T07:47:46;55.19;38.16;65.72;;
77361;Laerm;66427;51.798;10.954;2023-03-16T07:50:12;54.52;36.47;66.51;;
77361;Laerm;66427;51.798;10.954;2023-03-16T07:52:40;53.85;37.48;68.58;;
77361;Laerm;66427;51.798;10.954;2023-03-16T07:55:06;59.56;38.50;70.30;;
77361;Laerm;66427;51.798;10.954;2023-03-16T07:57:32;66.56;46.47;80.11;;
77361;Laerm;66427;51.798;10.954;2023-03-16T07:59:58;60.55;40.04;72.83;;
77361;Laerm;66427;51.798;10.954;2023-03-16T08:02:24;55.57;40.12;66.20;;
77361;Laerm;66427;51.798;10.954;2023-03-16T08:04:51;58.10;43.14;69.99;;
77361;Laerm;66427;51.798;10.954;2023-03-16T08:07:16;54.87;38.19;66.94;;
77361;Laerm;66427;51.798;10.954;2023-03-16T08:09:43;55.29;41.38;66.93;;
77361;Laerm;66427;51.798;10.954;2023-03-16T08:12:09;53.91;38.05;65.63;;
77361;Laerm;66427;51.798;10.954;2023-03-16T08:14:35;56.33;37.82;69.42;;
77361;Laerm;66427;51.798;10.954;2023-03-16T08:17:01;63.86;36.56;79.99;;
77361;Laerm;66427;51.798;10.954;2023-03-16T08:19:27;58.02;41.57;67.34;;
77361;Laerm;66427;51.798;10.954;2023-03-16T08:21:53;58.95;40.42;75.00;;
77361;Laerm;66427;51.798;10.954;2023-03-16T08:24:19;59.38;38.41;73.14;;
77361;Laerm;66427;51.798;10.954;2023-03-16T08:26:45;54.41;35.88;66.37;;
77361;Laerm;66427;51.798;10.954;2023-03-16T08:29:11;54.22;37.16;66.72;;
77361;Laerm;66427;51.798;10.954;2023-03-16T08:31:38;53.27;37.26;68.71;;
77361;Laerm;66427;51.798;10.954;2023-03-16T08:34:06;56.04;37.98;71.29;;
77361;Laerm;66427;51.798;10.954;2023-03-16T08:36:33;55.16;37.07;68.35;;
77361;Laerm;66427;51.798;10.954;2023-03-16T08:38:59;52.98;37.80;67.09;;
77361;Laerm;66427;51.798;10.954;2023-03-16T08:41:25;56.65;38.34;66.77;;
77361;Laerm;66427;51.798;10.954;2023-03-16T08:43:56;51.76;36.75;67.38;;
77361;Laerm;66427;51.798;10.954;2023-03-16T08:46:23;56.24;40.33;65.80;;
77361;Laerm;66427;51.798;10.954;2023-03-16T08:48:49;52.05;37.92;65.42;;
77361;Laerm;66427;51.798;10.954;2023-03-16T08:51:15;57.07;38.71;68.28;;
77361;Laerm;66427;51.798;10.954;2023-03-16T08:53:42;53.12;37.11;67.33;;
77361;Laerm;66427;51.798;10.954;2023-03-16T08:56:11;53.34;36.67;66.29;;
77361;Laerm;66427;51.798;10.954;2023-03-16T08:58:39;49.81;36.37;63.45;;
77361;Laerm;66427;51.798;10.954;2023-03-16T09:01:10;55.93;38.12;68.86;;
77361;Laerm;66427;51.798;10.954;2023-03-16T09:03:37;58.55;39.93;70.27;;
77361;Laerm;66427;51.798;10.954;2023-03-16T09:06:06;57.19;37.49;70.07;;
77361;Laerm;66427;51.798;10.954;2023-03-16T09:08:32;49.66;36.58;65.27;;
77361;Laerm;66427;51.798;10.954;2023-03-16T09:11:02;55.15;37.28;66.99;;
77361;Laerm;66427;51.798;10.954;2023-03-16T09:13:28;55.80;35.51;67.11;;
77361;Laerm;66427;51.798;10.954;2023-03-16T09:15:55;51.48;35.25;66.57;;
77361;Laerm;66427;51.798;10.954;2023-03-16T09:18:21;55.53;36.88;70.85;;
77361;Laerm;66427;51.798;10.954;2023-03-16T09:20:47;51.49;35.73;64.27;;
77361;Laerm;66427;51.798;10.954;2023-03-16T09:23:14;57.65;35.88;68.25;;
77361;Laerm;66427;51.798;10.954;2023-03-16T09:25:39;52.68;36.15;64.10;;
77361;Laerm;66427;51.798;10.954;2023-03-16T09:28:05;53.29;38.33;65.87;;
77361;Laerm;66427;51.798;10.954;2023-03-16T09:30:31;57.22;39.23;73.38;;
77361;Laerm;66427;51.798;10.954;2023-03-16T09:32:57;56.18;36.71;67.87;;
77361;Laerm;66427;51.798;10.954;2023-03-16T09:35:23;58.80;37.02;79.84;;
77361;Laerm;66427;51.798;10.954;2023-03-16T09:37:50;54.36;36.38;66.18;;
77361;Laerm;66427;51.798;10.954;2023-03-16T09:40:19;57.70;38.17;70.14;;
77361;Laerm;66427;51.798;10.954;2023-03-16T09:42:50;50.43;37.53;66.39;;
77361;Laerm;66427;51.798;10.954;2023-03-16T09:45:25;53.47;38.17;66.80;;
77361;Laerm;66427;51.798;10.954;2023-03-16T09:47:57;52.95;38.40;65.58;;
77361;Laerm;66427;51.798;10.954;2023-03-16T09:50:26;54.78;38.07;66.10;;
77361;Laerm;66427;51.798;10.954;2023-03-16T09:52:59;55.11;38.24;67.49;;
77361;Laerm;66427;51.798;10.954;2023-03-16T09:55:30;55.28;37.34;69.34;;
77361;Laerm;66427;51.798;10.954;2023-03-16T09:57:57;55.21;38.34;67.56;;
77361;Laerm;66427;51.798;10.954;2023-03-16T10:00:33;54.86;38.76;66.29;;
77361;Laerm;66427;51.798;10.954;2023-03-16T10:05:42;57.12;40.98;67.23;;
77361;Laerm;66427;51.798;10.954;2023-03-16T10:11:04;57.63;37.83;65.55;;
77361;Laerm;66427;51.798;10.954;2023-03-16T10:13:36;57.23;38.51;69.22;;
77361;Laerm;66427;51.798;10.954;2023-03-16T10:16:12;56.11;37.56;70.09;;
77361;Laerm;66427;51.798;10.954;2023-03-16T10:18:43;54.41;37.16;65.69;;
77361;Laerm;66427;51.798;10.954;2023-03-16T10:21:11;57.42;37.92;75.26;;
77361;Laerm;66427;51.798;10.954;2023-03-16T10:23:37;54.93;38.36;69.54;;
77361;Laerm;66427;51.798;10.954;2023-03-16T10:26:08;57.02;45.26;68.76;;
77361;Laerm;66427;51.798;10.954;2023-03-16T10:28:37;55.30;44.82;66.44;;
77361;Laerm;66427;51.798;10.954;2023-03-16T10:31:04;56.53;43.17;77.09;;
77361;Laerm;66427;51.798;10.954;2023-03-16T10:33:31;57.47;43.50;71.59;;
77361;Laerm;66427;51.798;10.954;2023-03-16T10:36:23;57.54;35.79;72.38;;
77361;Laerm;66427;51.798;10.954;2023-03-16T10:38:47;60.59;38.16;77.15;;
77361;Laerm;66427;51.798;10.954;2023-03-16T10:43:44;52.88;38.56;68.25;;
77361;Laerm;66427;51.798;10.954;2023-03-16T10:46:11;54.43;37.68;70.01;;
77361;Laerm;66427;51.798;10.954;2023-03-16T10:48:38;53.76;37.44;66.24;;
77361;Laerm;66427;51.798;10.954;2023-03-16T10:51:11;53.34;39.23;68.35;;
77361;Laerm;66427;51.798;10.954;2023-03-16T10:53:41;59.52;37.29;78.13;;
77361;Laerm;66427;51.798;10.954;2023-03-16T10:56:19;54.95;36.96;68.03;;
77361;Laerm;66427;51.798;10.954;2023-03-16T10:58:47;57.39;36.35;70.95;;
77361;Laerm;66427;51.798;10.954;2023-03-16T11:01:25;54.78;37.48;70.54;;
77361;Laerm;66427;51.798;10.954;2023-03-16T11:03:51;53.46;37.97;68.74;;
77361;Laerm;66427;51.798;10.954;2023-03-16T11:06:29;56.09;36.75;68.74;;
77361;Laerm;66427;51.798;10.954;2023-03-16T11:09:02;51.53;35.80;66.01;;
77361;Laerm;66427;51.798;10.954;2023-03-16T11:11:32;51.50;37.63;63.40;;
77361;Laerm;66427;51.798;10.954;2023-03-16T11:14:00;55.91;36.51;69.11;;
77361;Laerm;66427;51.798;10.954;2023-03-16T11:16:29;54.07;37.93;65.63;;
77361;Laerm;66427;51.798;10.954;2023-03-16T11:24:43;52.48;38.63;64.46;;
77361;Laerm;66427;51.798;10.954;2023-03-16T11:27:19;53.53;38.37;64.56;;
77361;Laerm;66427;51.798;10.954;2023-03-16T11:32:26;53.50;38.91;65.50;;
77361;Laerm;66427;51.798;10.954;2023-03-16T11:34:55;59.23;40.92;75.07;;
77361;Laerm;66427;51.798;10.954;2023-03-16T11:42:58;56.70;37.03;73.41;;
77361;Laerm;66427;51.798;10.954;2023-03-16T11:45:34;55.90;37.84;68.25;;
77361;Laerm;66427;51.798;10.954;2023-03-16T11:51:04;54.33;37.84;67.22;;
77361;Laerm;66427;51.798;10.954;2023-03-16T11:56:24;55.94;38.83;71.52;;
77361;Laerm;66427;51.798;10.954;2023-03-16T12:09:41;53.88;40.00;70.98;;
77361;Laerm;66427;51.798;10.954;2023-03-16T12:12:22;56.84;38.25;74.45;;
77361;Laerm;66427;51.798;10.954;2023-03-16T12:17:38;79.36;50.01;90.93;;
77361;Laerm;66427;51.798;10.954;2023-03-16T12:20:09;47.83;38.48;59.84;;
77361;Laerm;66427;51.798;10.954;2023-03-16T12:22:40;52.51;37.97;64.41;;
77361;Laerm;66427;51.798;10.954;2023-03-16T12:25:16;53.42;38.31;68.18;;
77361;Laerm;66427;51.798;10.954;2023-03-16T12:27:45;63.98;41.09;80.97;;
77361;Laerm;66427;51.798;10.954;2023-03-16T12:32:50;54.31;39.49;69.17;;
77361;Laerm;66427;51.798;10.954;2023-03-16T12:38:13;56.37;40.37;72.23;;
77361;Laerm;66427;51.798;10.954;2023-03-16T12:48:39;54.92;39.69;66.71;;
77361;Laerm;66427;51.798;10.954;2023-03-16T12:51:06;58.40;40.00;72.12;;
77361;Laerm;66427;51.798;10.954;2023-03-16T12:56:18;52.94;41.46;67.21;;
77361;Laerm;66427;51.798;10.954;2023-03-16T12:58:47;51.46;39.95;63.86;;
77361;Laerm;66427;51.798;10.954;2023-03-16T13:01:15;53.67;41.02;64.36;;
77361;Laerm;66427;51.798;10.954;2023-03-16T13:03:42;55.74;39.77;67.06;;
77361;Laerm;66427;51.798;10.954;2023-03-16T13:06:43;54.32;39.01;68.57;;
77361;Laerm;66427;51.798;10.954;2023-03-16T13:09:02;55.93;41.51;66.56;;
77361;Laerm;66427;51.798;10.954;2023-03-16T13:11:44;63.46;41.59;81.89;;
77361;Laerm;66427;51.798;10.954;2023-03-16T13:17:02;50.17;39.62;63.26;;
77361;Laerm;66427;51.798;10.954;2023-03-16T13:19:30;54.46;40.79;67.11;;
77361;Laerm;66427;51.798;10.954;2023-03-16T13:24:37;55.08;39.01;67.33;;
77361;Laerm;66427;51.798;10.954;2023-03-16T13:27:16;58.58;41.39;67.59;;
77361;Laerm;66427;51.798;10.954;2023-03-16T13:29:52;49.64;38.47;62.50;;
77361;Laerm;66427;51.798;10.954;2023-03-16T13:32:19;54.76;38.22;65.42;;
77361;Laerm;66427;51.798;10.954;2023-03-16T13:34:50;58.48;39.79;73.49;;
77361;Laerm;66427;51.798;10.954;2023-03-16T13:37:18;52.34;39.52;69.34;;
77361;Laerm;66427;51.798;10.954;2023-03-16T13:39:51;55.61;39.47;66.28;;
77361;Laerm;66427;51.798;10.954;2023-03-16T13:42:20;48.79;40.11;60.79;;
77361;Laerm;66427;51.798;10.954;2023-03-16T13:44:50;55.36;39.10;73.00;;
77361;Laerm;66427;51.798;10.954;2023-03-16T13:47:17;56.65;40.31;67.59;;
77361;Laerm;66427;51.798;10.954;2023-03-16T13:49:50;54.66;39.08;66.99;;
77361;Laerm;66427;51.798;10.954;2023-03-16T13:52:29;57.23;40.55;75.67;;
77361;Laerm;66427;51.798;10.954;2023-03-16T13:54:56;56.06;38.02;69.26;;
77361;Laerm;66427;51.798;10.954;2023-03-16T13:57:23;56.19;39.51;67.50;;
77361;Laerm;66427;51.798;10.954;2023-03-16T13:59:50;55.77;38.43;66.94;;
77361;Laerm;66427;51.798;10.954;2023-03-16T14:02:23;56.42;39.49;66.24;;
77361;Laerm;66427;51.798;10.954;2023-03-16T14:04:49;55.01;38.38;65.23;;
77361;Laerm;66427;51.798;10.954;2023-03-16T14:07:16;56.60;37.98;72.70;;
77361;Laerm;66427;51.798;10.954;2023-03-16T14:09:42;57.15;39.32;69.48;;
77361;Laerm;66427;51.798;10.954;2023-03-16T14:12:12;54.43;39.64;66.44;;
77361;Laerm;66427;51.798;10.954;2023-03-16T14:14:39;55.58;38.50;67.00;;
77361;Laerm;66427;51.798;10.954;2023-03-16T14:19:37;62.60;41.53;77.83;;
77361;Laerm;66427;51.798;10.954;2023-03-16T14:22:10;56.77;39.82;67.71;;
77361;Laerm;66427;51.798;10.954;2023-03-16T14:24:37;54.90;38.27;65.73;;
77361;Laerm;66427;51.798;10.954;2023-03-16T14:29:49;56.55;39.28;71.07;;
77361;Laerm;66427;51.798;10.954;2023-03-16T14:32:34;53.52;40.01;65.28;;
77361;Laerm;66427;51.798;10.954;2023-03-16T14:35:11;57.18;38.94;70.07;;
77361;Laerm;66427;51.798;10.954;2023-03-16T14:37:41;54.05;38.48;70.50;;
77361;Laerm;66427;51.798;10.954;2023-03-16T14:40:20;56.30;35.88;70.44;;
77361;Laerm;66427;51.798;10.954;2023-03-16T14:42:46;59.01;38.82;69.34;;
77361;Laerm;66427;51.798;10.954;2023-03-16T14:45:14;55.71;39.59;66.88;;
77361;Laerm;66427;51.798;10.954;2023-03-16T14:47:42;55.20;38.27;69.30;;